Buckeye, AZ

9:15 PM MST on October 19, 2019 (GMT -0700)
Buckeye Municipal

Weather History for KBXK - May, 2019

Change the Weather History Date:

Thursday, May 16, 2019

  Actual Average (KGYR) Record (KGYR)
Temperature  
Mean Temperature 78 °F -  
Max Temperature 89 °F 93 °F 105 °F (1997)
Min Temperature 66 °F 64 °F 55 °F (2015)
Cooling Degree Days 14    
Growing Degree Days 28 (Base 50)    
Moisture  
Dew Point 40 °F    
Average Humidity 26    
Maximum Humidity 36    
Minimum Humidity 14    
Precipitation  
Precipitation 0.00 in - - ()
Sea Level Pressure  
Sea Level Pressure 29.78 in    
Wind  
Wind Speed 11 mph (SSW)    
Max Wind Speed 22 mph    
Max Gust Speed 33 mph    
Visibility 10 miles    
Events      
Averages and records for this station are not official NWS values.
T = Trace of Precipitation, MM = Missing Value Source: NWS Daily Summary

Daily Weather History Graph

Daily Weather History Graph

Search for Another Location

Airport or City:

Astronomy

May. 16, 2019 Rise Set
Actual Time 5:29 AM MST 7:24 PM MST
Civil Twilight 5:02 AM MST 7:52 PM MST
Nautical Twilight 4:29 AM MST 8:25 PM MST
Astronomical Twilight 3:53 AM MST 9:01 PM MST
Moon 5:18 PM MST (5/16) 4:18 AM MST (5/16)
Length of Visible Light 14h 49m
Length of Day
13h 54m
Waxing Gibbous, 95% of the Moon is Illuminated
May 16
Waxing Gibbous
May 18
Full
May 26
Last Quarter
Jun 3
New
Jun 9
First Quarter

Hourly Weather History & Observations

Time (MST) Temp. Dew Point Humidity Pressure Visibility Wind Dir Wind Speed Gust Speed Precip Events Conditions
12:15 AM 77.0 °F 33.8 °F 21% 29.79 in 10.0 mi SW 8.1 mph - N/A   Overcast
12:35 AM 77.0 °F 37.4 °F 24% 29.79 in 10.0 mi SW 10.4 mph - N/A   Overcast
12:55 AM 77.0 °F 37.4 °F 24% 29.79 in 10.0 mi SW 10.4 mph - N/A   Overcast
1:15 AM 77.0 °F 37.4 °F 24% 29.79 in 10.0 mi SW 9.2 mph - N/A   Unknown
1:35 AM 77.0 °F 39.2 °F 26% 29.79 in 10.0 mi SSW 8.1 mph - N/A   Unknown
1:55 AM 77.0 °F 39.2 °F 26% 29.79 in 10.0 mi SSW 6.9 mph - N/A   Unknown
2:15 AM 75.2 °F 39.2 °F 27% 29.78 in 10.0 mi South 4.6 mph - N/A   Unknown
2:35 AM 75.2 °F 39.2 °F 27% 29.78 in 10.0 mi SSE 4.6 mph - N/A   Overcast
2:55 AM 75.2 °F 39.2 °F 27% 29.78 in 10.0 mi SE 5.8 mph - N/A   Overcast
3:15 AM 73.4 °F 39.2 °F 29% 29.78 in 10.0 mi SE 8.1 mph - N/A   Overcast
3:35 AM 73.4 °F 41.0 °F 31% 29.78 in 10.0 mi SE 8.1 mph - N/A   Unknown
3:55 AM 73.4 °F 41.0 °F 31% 29.77 in 10.0 mi SE 8.1 mph - N/A   Overcast
4:15 AM 73.4 °F 41.0 °F 31% 29.77 in 10.0 mi SE 8.1 mph - N/A   Overcast
4:35 AM 71.6 °F 41.0 °F 33% 29.78 in 10.0 mi SE 8.1 mph - N/A   Overcast
4:55 AM 73.4 °F 39.2 °F 29% 29.79 in 10.0 mi SE 3.5 mph - N/A   Overcast
5:15 AM 73.4 °F 39.2 °F 29% 29.79 in 10.0 mi SSE 4.6 mph - N/A   Unknown
5:35 AM 73.4 °F 39.2 °F 29% 29.79 in 10.0 mi SE 5.8 mph - N/A   Partly Cloudy
5:55 AM 71.6 °F 41.0 °F 33% 29.79 in 10.0 mi East 4.6 mph - N/A   Clear
6:15 AM 71.6 °F 39.2 °F 31% 29.79 in 10.0 mi Calm Calm - N/A   Clear
6:35 AM 73.4 °F 39.2 °F 29% 29.79 in 10.0 mi East 4.6 mph - N/A   Clear
6:55 AM 71.6 °F 39.2 °F 31% 29.79 in 10.0 mi East 9.2 mph - N/A   Clear
7:15 AM 73.4 °F 39.2 °F 29% 29.79 in 10.0 mi ESE 8.1 mph - N/A   Clear
7:35 AM 75.2 °F 42.8 °F 31% 29.79 in 10.0 mi ESE 9.2 mph - N/A   Clear
7:55 AM 75.2 °F 44.6 °F 34% 29.79 in 10.0 mi ESE 10.4 mph - N/A   Clear
8:15 AM 75.2 °F 44.6 °F 34% 29.79 in 10.0 mi ESE 11.5 mph - N/A   Clear
8:35 AM 78.8 °F 44.6 °F 30% 29.79 in 10.0 mi East 10.4 mph - N/A   Clear
8:55 AM 80.6 °F 41.0 °F 24% 29.79 in 10.0 mi South 12.7 mph - N/A   Clear
9:15 AM 80.6 °F 37.4 °F 21% 29.80 in 10.0 mi South 12.7 mph - N/A   Clear
9:35 AM 82.4 °F 35.6 °F 19% 29.80 in 10.0 mi South 9.2 mph - N/A   Clear
9:55 AM 82.4 °F 37.4 °F 20% 29.80 in 10.0 mi South 11.5 mph - N/A   Clear
10:15 AM 82.4 °F 35.6 °F 19% 29.80 in 10.0 mi SSW 15.0 mph 20.7 mph N/A   Clear
10:35 AM 82.4 °F 35.6 °F 19% 29.80 in 10.0 mi South 15.0 mph 21.9 mph N/A   Clear
10:55 AM 84.2 °F 37.4 °F 19% 29.81 in 10.0 mi SSW 17.3 mph 23.0 mph N/A   Clear
11:15 AM 84.2 °F 39.2 °F 20% 29.81 in 10.0 mi SSW 20.7 mph 26.5 mph N/A   Clear
11:35 AM 84.2 °F 41.0 °F 22% 29.81 in 10.0 mi SSW 17.3 mph 26.5 mph N/A   Clear
11:55 AM 84.2 °F 44.6 °F 25% 29.80 in 10.0 mi South 15.0 mph 19.6 mph N/A   Clear
12:15 PM 86.0 °F 42.8 °F 22% 29.80 in 10.0 mi SSW 12.7 mph 24.2 mph N/A   Clear
12:35 PM 86.0 °F 44.6 °F 23% 29.80 in 10.0 mi SW 16.1 mph 21.9 mph N/A   Clear
12:55 PM 86.0 °F 42.8 °F 22% 29.79 in 10.0 mi SW 13.8 mph 23.0 mph N/A   Clear
1:15 PM 87.8 °F 41.0 °F 19% 29.78 in 10.0 mi SW 20.7 mph 29.9 mph N/A   Clear
1:35 PM 87.8 °F 37.4 °F 17% 29.78 in 10.0 mi SSW 13.8 mph 25.3 mph N/A   Clear
1:55 PM 87.8 °F 37.4 °F 17% 29.78 in 10.0 mi SSW 15.0 mph 24.2 mph N/A   Clear
2:15 PM 89.6 °F 37.4 °F 16% 29.77 in 10.0 mi WSW 16.1 mph 25.3 mph N/A   Clear
2:35 PM 89.6 °F 35.6 °F 15% 29.77 in 10.0 mi SW 18.4 mph 26.5 mph N/A   Clear
2:55 PM 89.6 °F 33.8 °F 14% 29.76 in 10.0 mi WSW 15.0 mph 26.5 mph N/A   Clear
3:15 PM 87.8 °F 33.8 °F 15% 29.75 in 10.0 mi WSW 18.4 mph 29.9 mph N/A   Clear
3:35 PM 87.8 °F 33.8 °F 15% 29.75 in 10.0 mi SW 18.4 mph 27.6 mph N/A   Clear
3:55 PM 87.8 °F 35.6 °F 16% 29.75 in 10.0 mi SW 18.4 mph 28.8 mph N/A   Clear
4:15 PM 86.0 °F 37.4 °F 18% 29.74 in 10.0 mi WSW 20.7 mph 26.5 mph N/A   Clear
4:35 PM 86.0 °F 39.2 °F 19% 29.74 in 10.0 mi WSW 19.6 mph 28.8 mph N/A   Clear
4:55 PM 86.0 °F 41.0 °F 20% 29.73 in 10.0 mi WSW 21.9 mph 28.8 mph N/A   Clear
5:15 PM 86.0 °F 41.0 °F 20% 29.73 in 10.0 mi SW 16.1 mph 33.4 mph N/A   Clear
5:35 PM 84.2 °F 41.0 °F 22% 29.73 in 10.0 mi WSW 19.6 mph 32.2 mph N/A   Clear
5:55 PM 84.2 °F 42.8 °F 23% 29.73 in 10.0 mi WSW 17.3 mph 27.6 mph N/A   Clear
6:15 PM 84.2 °F 44.6 °F 25% 29.73 in 10.0 mi WSW 18.4 mph 29.9 mph N/A   Clear
6:35 PM 82.4 °F 44.6 °F 26% 29.74 in 10.0 mi West 13.8 mph 23.0 mph N/A   Clear
6:55 PM 80.6 °F 44.6 °F 28% 29.74 in 10.0 mi WSW 11.5 mph 23.0 mph N/A   Clear
7:15 PM 80.6 °F 44.6 °F 28% 29.74 in 10.0 mi West 15.0 mph 19.6 mph N/A   Clear
7:35 PM 80.6 °F 46.4 °F 30% 29.74 in 10.0 mi West 13.8 mph - N/A   Clear
7:55 PM 80.6 °F 46.4 °F 30% 29.75 in 10.0 mi WSW 13.8 mph 20.7 mph N/A   Clear
8:15 PM 78.8 °F 44.6 °F 30% 29.75 in 10.0 mi West 13.8 mph - N/A   Clear
8:35 PM 77.0 °F 44.6 °F 32% 29.76 in 10.0 mi West 18.4 mph 24.2 mph N/A   Clear
8:55 PM 77.0 °F 44.6 °F 32% 29.77 in 10.0 mi West 18.4 mph - N/A   Clear
9:15 PM 75.2 °F 44.6 °F 34% 29.77 in 10.0 mi West 11.5 mph 19.6 mph N/A   Clear
9:35 PM 75.2 °F 44.6 °F 34% 29.78 in 10.0 mi WSW 15.0 mph 19.6 mph N/A   Partly Cloudy
9:55 PM 75.2 °F 42.8 °F 31% 29.79 in 10.0 mi West 16.1 mph 20.7 mph N/A   Clear
10:15 PM 73.4 °F 44.6 °F 36% 29.79 in 10.0 mi West 12.7 mph 18.4 mph N/A   Partly Cloudy
10:35 PM 73.4 °F 42.8 °F 33% 29.79 in 10.0 mi West 17.3 mph 25.3 mph N/A   Partly Cloudy
10:55 PM 71.6 °F 39.2 °F 31% 29.80 in 10.0 mi WSW 16.1 mph 21.9 mph N/A   Partly Cloudy
11:15 PM 69.8 °F 35.6 °F 28% 29.81 in 10.0 mi West 8.1 mph - N/A   Clear
11:35 PM 68.0 °F 35.6 °F 30% 29.82 in 10.0 mi West 12.7 mph - N/A   Partly Cloudy
11:55 PM 66.2 °F 33.8 °F 30% 29.82 in 10.0 mi WNW 15.0 mph 23.0 mph N/A   Clear